createdAt,value
2022-10-21T00:02:20.688Z,60.25
2022-10-21T00:04:48.224Z,30.83
2022-10-21T00:07:15.755Z,18.65
2022-10-21T00:09:43.260Z,30.05
2022-10-21T00:12:10.808Z,16.48
2022-10-21T00:14:38.304Z,24.98
2022-10-21T00:17:05.861Z,16.70
2022-10-21T00:19:34.843Z,17.42
2022-10-21T00:22:02.385Z,19.75
2022-10-21T00:24:29.922Z,17.15
2022-10-21T00:26:57.567Z,18.83
2022-10-21T00:29:25.093Z,22.27
2022-10-21T00:31:54.639Z,16.42
2022-10-21T00:34:25.859Z,14.38
2022-10-21T00:36:57.284Z,15.45
2022-10-21T00:39:24.807Z,14.32
2022-10-21T00:41:52.339Z,14.13
2022-10-21T00:44:19.868Z,14.35
2022-10-21T00:46:53.031Z,17.58
2022-10-21T00:49:24.328Z,14.40
2022-10-21T00:51:58.369Z,14.00
2022-10-21T00:54:27.404Z,14.88
2022-10-21T00:56:57.071Z,14.13
2022-10-21T00:59:26.189Z,14.70
2022-10-21T01:01:54.457Z,14.18
2022-10-21T01:04:22.239Z,13.88
2022-10-21T01:06:50.816Z,13.80
2022-10-21T01:09:20.925Z,14.85
2022-10-21T01:11:50.124Z,14.65
2022-10-21T01:14:43.258Z,13.93
2022-10-21T01:17:40.218Z,14.00
2022-10-21T01:20:38.293Z,13.82
2022-10-21T01:23:35.026Z,13.82
2022-10-21T01:26:26.261Z,13.60
2022-10-21T01:29:15.253Z,13.13
2022-10-21T01:31:47.908Z,14.73
2022-10-21T01:34:22.201Z,13.93
2022-10-21T01:36:56.092Z,14.20
2022-10-21T01:39:28.228Z,13.48
2022-10-21T01:42:03.522Z,13.95
2022-10-21T01:44:37.943Z,14.20
2022-10-21T01:47:12.364Z,16.27
2022-10-21T01:49:43.111Z,14.75
2022-10-21T01:52:13.433Z,14.57
2022-10-21T01:54:44.863Z,14.68
2022-10-21T01:57:16.594Z,14.20
2022-10-21T01:59:45.471Z,13.18
2022-10-21T02:02:16.256Z,14.25
2022-10-21T02:04:46.934Z,14.82
2022-10-21T02:07:14.663Z,15.75
2022-10-21T02:09:42.161Z,15.38
2022-10-21T02:12:11.354Z,15.18
2022-10-21T02:14:44.943Z,16.30
2022-10-21T02:17:17.205Z,15.27
2022-10-21T02:19:46.382Z,15.90
2022-10-21T02:22:18.174Z,16.35
2022-10-21T02:24:52.756Z,16.10
2022-10-21T02:27:21.247Z,17.27
2022-10-21T02:29:50.665Z,20.70
2022-10-21T02:32:28.016Z,19.75
2022-10-21T02:35:09.797Z,18.17
2022-10-21T02:37:44.375Z,19.58
2022-10-21T02:40:17.852Z,20.65
2022-10-21T02:42:48.950Z,23.20
2022-10-21T02:45:18.794Z,23.40
2022-10-21T02:47:49.763Z,20.48
2022-10-21T02:50:17.785Z,18.58
2022-10-21T02:52:45.311Z,18.92
2022-10-21T02:55:13.311Z,17.83
2022-10-21T02:57:41.335Z,19.70
2022-10-21T03:00:10.262Z,19.67
2022-10-21T03:02:37.845Z,19.20
2022-10-21T03:05:07.615Z,18.33
2022-10-21T03:07:35.132Z,17.77
2022-10-21T03:10:02.703Z,17.70
2022-10-21T03:12:30.238Z,16.30
2022-10-21T03:14:57.846Z,16.98
2022-10-21T03:17:25.609Z,16.42
2022-10-21T03:19:53.252Z,16.95
2022-10-21T03:22:22.133Z,17.25
2022-10-21T03:24:49.638Z,17.75
2022-10-21T03:27:17.314Z,18.88
2022-10-21T03:29:44.831Z,17.77
2022-10-21T03:32:12.361Z,18.17
2022-10-21T03:34:39.873Z,16.67
2022-10-21T03:37:07.378Z,17.85
2022-10-21T03:39:36.248Z,17.75
2022-10-21T03:42:03.826Z,18.05
2022-10-21T03:44:31.360Z,17.85
2022-10-21T03:46:58.879Z,16.90
2022-10-21T03:49:26.586Z,16.23
2022-10-21T03:51:54.112Z,17.50
2022-10-21T03:54:21.834Z,17.10
2022-10-21T03:56:50.718Z,16.63
2022-10-21T03:59:18.433Z,17.38
2022-10-21T04:01:46.213Z,17.17
2022-10-21T04:04:13.749Z,17.65
2022-10-21T04:06:41.315Z,18.40
2022-10-21T04:09:09.006Z,17.25
2022-10-21T04:11:36.593Z,16.98
2022-10-21T04:14:05.624Z,17.05
2022-10-21T04:16:33.731Z,17.50
2022-10-21T04:19:01.654Z,19.27
2022-10-21T04:21:29.222Z,18.45
2022-10-21T04:23:56.775Z,17.80
2022-10-21T04:26:24.322Z,19.08
2022-10-21T04:28:51.876Z,19.77
2022-10-21T04:31:20.727Z,19.10
2022-10-21T04:33:48.252Z,18.30
2022-10-21T04:36:15.878Z,17.58
2022-10-21T04:38:43.422Z,16.55
2022-10-21T04:41:10.984Z,17.63
2022-10-21T04:43:39.364Z,16.08
2022-10-21T04:46:12.097Z,17.85
2022-10-21T04:48:41.219Z,18.50
2022-10-21T04:51:08.736Z,17.02
2022-10-21T04:53:36.291Z,15.27
2022-10-21T04:56:03.940Z,16.13
2022-10-21T04:58:31.521Z,15.10
2022-10-21T05:00:59.098Z,15.52
2022-10-21T05:03:26.639Z,14.20
2022-10-21T05:05:55.492Z,15.88
2022-10-21T05:08:23.287Z,14.85
2022-10-21T05:10:50.836Z,15.15
2022-10-21T05:13:18.343Z,17.33
2022-10-21T05:15:45.863Z,16.48
2022-10-21T05:18:13.396Z,18.30
2022-10-21T05:20:40.905Z,17.20
2022-10-21T05:23:09.788Z,17.55
2022-10-21T05:25:38.145Z,16.73
2022-10-21T05:28:05.794Z,16.00
2022-10-21T05:30:33.376Z,17.23
2022-10-21T05:33:00.914Z,16.48
2022-10-21T05:35:28.414Z,16.42
2022-10-21T05:37:55.959Z,17.33
2022-10-21T05:40:24.933Z,17.38
2022-10-21T05:42:52.436Z,16.35
2022-10-21T05:45:19.985Z,14.50
2022-10-21T05:47:47.752Z,14.85
2022-10-21T05:50:15.281Z,15.30
2022-10-21T05:52:43.055Z,16.98
2022-10-21T05:55:11.205Z,15.05
2022-10-21T05:57:40.571Z,15.70
2022-10-21T06:00:09.355Z,15.35
2022-10-21T06:02:37.185Z,14.80
2022-10-21T06:05:05.435Z,16.20
2022-10-21T06:07:32.939Z,14.80
2022-10-21T06:10:00.463Z,17.13
2022-10-21T06:12:27.990Z,17.95
2022-10-21T06:14:56.864Z,17.58
2022-10-21T06:17:24.387Z,16.13
2022-10-21T06:19:51.904Z,17.02
2022-10-21T06:22:19.412Z,16.55
2022-10-21T06:24:47.277Z,14.63
2022-10-21T06:27:14.989Z,14.82
2022-10-21T06:29:42.503Z,14.07
2022-10-21T06:32:12.037Z,14.82
2022-10-21T06:34:39.629Z,13.85
2022-10-21T06:37:07.125Z,14.10
2022-10-21T06:39:34.628Z,16.00
2022-10-21T06:42:02.095Z,13.57
2022-10-21T06:44:29.596Z,15.00
2022-10-21T06:46:57.108Z,15.45
2022-10-21T06:49:25.965Z,17.08
2022-10-21T06:51:53.693Z,15.38
2022-10-21T06:54:21.191Z,14.93
2022-10-21T06:56:48.717Z,14.38
2022-10-21T06:59:16.257Z,13.15
2022-10-21T07:02:00.526Z,13.25
2022-10-21T07:04:30.598Z,13.18
2022-10-21T07:06:58.380Z,12.85
2022-10-21T07:09:25.926Z,12.57
2022-10-21T07:11:53.499Z,12.43
2022-10-21T07:14:21.015Z,12.48
2022-10-21T07:16:49.071Z,14.23
2022-10-21T07:19:16.601Z,12.55
2022-10-21T07:21:46.175Z,11.93
2022-10-21T07:24:16.295Z,11.82
2022-10-21T07:26:45.134Z,11.82
2022-10-21T07:29:12.644Z,12.73
2022-10-21T07:31:40.527Z,11.05
2022-10-21T07:34:09.434Z,11.93
2022-10-21T07:36:39.064Z,10.93
2022-10-21T07:39:11.761Z,10.88
2022-10-21T07:41:42.163Z,10.35
2022-10-21T07:44:10.568Z,10.68
2022-10-21T07:46:38.938Z,11.05
2022-10-21T07:49:07.045Z,10.30
2022-10-21T07:51:34.561Z,10.55
2022-10-21T07:54:02.821Z,10.20
2022-10-21T07:56:33.760Z,12.60
2022-10-21T07:59:02.415Z,9.38
2022-10-21T08:01:30.132Z,10.13
2022-10-21T08:03:58.856Z,9.52
2022-10-21T08:06:27.684Z,9.52
2022-10-21T08:08:57.340Z,9.80
2022-10-21T08:11:26.179Z,9.45
2022-10-21T08:13:55.997Z,10.05
2022-10-21T08:16:24.208Z,9.63
2022-10-21T08:18:51.984Z,9.93
2022-10-21T08:21:19.601Z,13.05
2022-10-21T08:23:47.140Z,10.20
2022-10-21T08:26:16.532Z,10.60
2022-10-21T08:28:45.130Z,10.60
2022-10-21T08:31:15.791Z,9.82
2022-10-21T08:33:43.811Z,9.25
2022-10-21T08:36:14.384Z,10.45
2022-10-21T08:38:42.218Z,9.43
2022-10-21T08:41:28.673Z,8.82
2022-10-21T08:43:59.017Z,9.55
2022-10-21T08:46:32.819Z,9.15
2022-10-21T08:49:07.062Z,8.90
2022-10-21T08:51:40.869Z,11.85
2022-10-21T08:54:18.417Z,9.18
2022-10-21T08:56:47.955Z,8.82
2022-10-21T08:59:23.779Z,9.13
2022-10-21T09:02:00.097Z,9.10
2022-10-21T09:04:40.553Z,8.85
2022-10-21T09:07:15.002Z,9.70
2022-10-21T09:09:49.757Z,8.88
2022-10-21T09:12:26.015Z,9.80
2022-10-21T09:15:24.931Z,9.93
2022-10-21T09:18:19.664Z,9.90
2022-10-21T09:20:56.600Z,9.40
2022-10-21T09:23:54.141Z,8.48
2022-10-21T09:26:33.679Z,9.30
2022-10-21T09:29:03.563Z,9.60
2022-10-21T09:31:31.140Z,9.70
2022-10-21T09:34:04.597Z,9.45
2022-10-21T09:36:37.577Z,9.00
2022-10-21T09:39:11.518Z,8.50
2022-10-21T09:41:43.743Z,8.65
2022-10-21T09:44:17.023Z,8.45
2022-10-21T09:46:46.206Z,8.60
2022-10-21T09:52:12.885Z,8.40
2022-10-21T09:54:42.736Z,8.30
2022-10-21T09:57:15.367Z,9.10
2022-10-21T09:59:53.810Z,8.45
2022-10-21T10:02:28.805Z,8.60
2022-10-21T10:04:58.427Z,9.23
2022-10-21T10:07:34.511Z,9.27
2022-10-21T10:10:02.666Z,10.10
2022-10-21T10:12:31.125Z,10.65
2022-10-21T10:15:25.850Z,10.40
2022-10-21T10:17:58.054Z,10.10
2022-10-21T10:20:27.326Z,9.98
2022-10-21T10:23:20.006Z,10.65
2022-10-21T10:25:53.073Z,9.32
2022-10-21T10:28:25.701Z,9.90
2022-10-21T10:30:56.362Z,8.85
2022-10-21T10:33:27.580Z,9.30
2022-10-21T10:35:58.670Z,8.88
2022-10-21T10:38:30.749Z,8.90
2022-10-21T10:41:06.200Z,8.70
2022-10-21T10:43:36.111Z,8.27
2022-10-21T10:46:07.655Z,8.32
2022-10-21T10:48:39.489Z,7.63
2022-10-21T10:51:24.061Z,8.05
2022-10-21T10:54:02.190Z,7.25
2022-10-21T10:56:33.453Z,7.53
2022-10-21T10:59:09.891Z,6.82
2022-10-21T11:01:44.083Z,6.82
2022-10-21T11:04:18.333Z,7.80
2022-10-21T11:06:52.039Z,8.98
2022-10-21T11:09:23.829Z,8.40
2022-10-21T11:11:56.281Z,10.02
2022-10-21T11:14:24.239Z,9.57
2022-10-21T11:17:01.839Z,8.32
2022-10-21T11:19:43.822Z,10.98
2022-10-21T11:22:27.107Z,9.15
2022-10-21T11:25:05.663Z,9.45
2022-10-21T11:27:48.830Z,9.32
2022-10-21T11:30:19.768Z,9.40
2022-10-21T11:33:04.427Z,10.10
2022-10-21T11:35:42.254Z,8.88
2022-10-21T11:38:32.827Z,8.57
2022-10-21T11:41:09.102Z,9.77
2022-10-21T11:43:49.043Z,9.15
2022-10-21T11:46:23.415Z,9.98
2022-10-21T11:49:02.392Z,9.07
2022-10-21T11:51:42.800Z,7.68
2022-10-21T11:55:08.903Z,8.13
2022-10-21T11:57:43.992Z,8.48
2022-10-21T12:00:15.035Z,8.38
2022-10-21T12:02:44.765Z,7.10
2022-10-21T12:05:22.538Z,8.88
2022-10-21T12:08:12.985Z,8.07
2022-10-21T12:10:48.260Z,7.68
2022-10-21T12:13:21.276Z,8.60
2022-10-21T12:15:52.807Z,9.85
2022-10-21T12:18:23.760Z,10.15
2022-10-21T12:20:54.100Z,9.02
2022-10-21T12:23:24.485Z,10.73
2022-10-21T12:26:10.027Z,10.10
2022-10-21T12:28:43.232Z,9.55
2022-10-21T12:31:27.523Z,8.68
2022-10-21T12:33:55.859Z,9.25
2022-10-21T12:36:40.003Z,7.88
2022-10-21T12:39:12.628Z,9.32
2022-10-21T12:41:41.940Z,9.18
2022-10-21T12:44:30.293Z,8.70
2022-10-21T12:47:02.677Z,8.40
2022-10-21T12:49:33.474Z,7.72
2022-10-21T12:52:09.396Z,6.97
2022-10-21T12:54:43.920Z,6.45
2022-10-21T12:57:24.972Z,6.57
2022-10-21T12:59:52.992Z,6.28
2022-10-21T13:02:29.443Z,6.15
2022-10-21T13:04:59.243Z,6.60
2022-10-21T13:07:36.381Z,7.25
2022-10-21T13:10:35.294Z,6.10
2022-10-21T13:13:30.712Z,6.72
2022-10-21T13:15:58.979Z,6.32
2022-10-21T13:18:55.413Z,6.60
2022-10-21T13:21:38.218Z,6.65
2022-10-21T13:24:20.866Z,6.82
2022-10-21T13:26:51.043Z,7.75
2022-10-21T13:29:42.131Z,7.15
2022-10-21T13:32:31.948Z,7.90
2022-10-21T13:35:31.236Z,6.22
2022-10-21T13:38:03.437Z,6.30
2022-10-21T13:40:37.458Z,6.78
2022-10-21T13:43:08.927Z,5.95
2022-10-21T13:45:44.052Z,5.68
2022-10-21T13:48:16.056Z,5.43
2022-10-21T13:50:45.410Z,6.20
2022-10-21T13:53:24.521Z,5.28
2022-10-21T13:55:59.931Z,5.53
2022-10-21T13:58:29.689Z,5.80
2022-10-21T14:00:59.234Z,6.18
2022-10-21T14:03:27.935Z,6.22
2022-10-21T14:05:58.976Z,6.07
2022-10-21T14:08:29.671Z,5.75
2022-10-21T14:10:59.875Z,5.45
2022-10-21T14:13:32.307Z,5.60
2022-10-21T14:16:01.891Z,6.70
2022-10-21T14:18:35.022Z,6.15
2022-10-21T14:21:05.940Z,6.15
2022-10-21T14:23:35.362Z,5.65
2022-10-21T14:26:07.098Z,6.00
2022-10-21T14:28:35.972Z,5.75
2022-10-21T14:33:43.241Z,6.95
2022-10-21T14:36:15.284Z,6.57
2022-10-21T14:38:51.512Z,6.90
2022-10-21T14:41:22.229Z,6.80
2022-10-21T14:43:52.891Z,7.00
2022-10-21T14:46:22.282Z,8.48
2022-10-21T14:48:53.524Z,6.97
2022-10-21T14:51:23.315Z,7.28
2022-10-21T14:53:56.007Z,7.30
2022-10-21T14:56:29.612Z,8.13
2022-10-21T14:58:59.161Z,7.95
2022-10-21T15:01:28.464Z,7.85
2022-10-21T15:04:00.260Z,8.68
2022-10-21T15:06:29.989Z,8.48
2022-10-21T15:09:06.205Z,8.55
2022-10-21T15:11:41.548Z,8.43
2022-10-21T15:14:32.966Z,8.40
2022-10-21T15:17:04.401Z,8.60
2022-10-21T15:19:44.018Z,8.77
2022-10-21T15:22:24.662Z,9.45
2022-10-21T15:24:53.619Z,9.05
2022-10-21T15:27:27.310Z,9.18
2022-10-21T15:29:54.980Z,9.82
2022-10-21T15:32:26.983Z,9.18
2022-10-21T15:34:57.205Z,9.75
2022-10-21T15:37:24.841Z,9.20
2022-10-21T15:39:52.346Z,8.73
2022-10-21T15:42:20.092Z,9.23
2022-10-21T15:44:50.053Z,9.25
2022-10-21T15:47:17.616Z,8.80
2022-10-21T15:49:47.268Z,8.55
2022-10-21T15:52:15.101Z,8.38
2022-10-21T15:54:42.797Z,7.68
2022-10-21T15:57:18.120Z,8.73
2022-10-21T15:59:46.254Z,8.48
2022-10-21T16:02:17.054Z,9.27
2022-10-21T16:04:46.665Z,8.90
2022-10-21T16:07:21.522Z,9.10
2022-10-21T16:09:49.202Z,8.60
2022-10-21T16:12:19.852Z,9.90
2022-10-21T16:14:47.433Z,10.60
2022-10-21T16:17:15.341Z,11.82
2022-10-21T16:19:43.034Z,14.23
2022-10-21T16:22:17.274Z,11.43
2022-10-21T16:24:44.800Z,16.23
2022-10-21T16:27:13.129Z,13.07
2022-10-21T16:29:40.993Z,12.10
2022-10-21T16:32:11.669Z,13.07
2022-10-21T16:34:39.232Z,12.77
2022-10-21T16:37:20.550Z,17.52
2022-10-21T16:39:48.054Z,15.50
2022-10-21T16:42:15.566Z,21.92
2022-10-21T16:44:44.694Z,26.15
2022-10-21T16:47:17.746Z,28.23
2022-10-21T16:49:46.052Z,31.45
2022-10-21T16:52:13.960Z,27.52
2022-10-21T16:54:46.447Z,23.58
2022-10-21T16:57:15.978Z,28.83
2022-10-21T16:59:43.462Z,19.00
2022-10-21T17:02:16.137Z,19.25
2022-10-21T17:04:43.831Z,26.27
2022-10-21T17:07:11.488Z,24.67
2022-10-21T17:09:39.001Z,25.90
2022-10-21T17:12:08.203Z,26.48
2022-10-21T17:17:08.170Z,18.35
2022-10-21T17:19:35.729Z,22.13
2022-10-21T17:22:03.316Z,13.40
2022-10-21T17:24:30.836Z,17.27
2022-10-21T17:26:58.372Z,15.55
2022-10-21T17:29:27.371Z,27.35
2022-10-21T17:31:54.925Z,15.10
2022-10-21T17:34:28.449Z,15.68
2022-10-21T17:36:56.221Z,16.92
2022-10-21T17:39:24.093Z,22.27
2022-10-21T17:41:51.746Z,21.63
2022-10-21T17:44:19.626Z,16.40
2022-10-21T17:46:49.443Z,16.90
2022-10-21T17:49:17.018Z,16.33
2022-10-21T17:51:44.662Z,17.35
2022-10-21T17:54:12.189Z,20.27
2022-10-21T17:56:41.554Z,20.20
2022-10-21T17:59:09.412Z,16.10
2022-10-21T18:01:36.961Z,18.50
2022-10-21T18:04:06.256Z,22.83
2022-10-21T18:06:34.055Z,19.40
2022-10-21T18:09:03.181Z,26.10
2022-10-21T18:11:30.813Z,21.38
2022-10-21T18:13:58.337Z,21.02
2022-10-21T18:16:25.962Z,23.13
2022-10-21T18:18:57.234Z,27.73
2022-10-21T18:21:28.992Z,23.23
2022-10-21T18:23:56.516Z,22.80
2022-10-21T18:26:26.483Z,27.92
2022-10-21T18:28:57.127Z,22.02
2022-10-21T18:31:26.152Z,22.08
2022-10-21T18:33:56.111Z,19.77
2022-10-21T18:36:24.518Z,25.15
2022-10-21T18:38:53.525Z,29.65
2022-10-21T18:41:22.012Z,30.83
2022-10-21T18:43:51.308Z,29.77
2022-10-21T18:46:19.051Z,27.25
2022-10-21T18:48:46.940Z,32.28
2022-10-21T18:51:16.444Z,32.33
2022-10-21T18:53:48.437Z,37.83
2022-10-21T18:56:21.987Z,34.58
2022-10-21T18:58:49.850Z,33.35
2022-10-21T19:01:18.951Z,33.35
2022-10-21T19:03:46.709Z,40.80
2022-10-21T19:06:19.474Z,39.53
2022-10-21T19:08:47.801Z,37.60
2022-10-21T19:11:15.431Z,44.53
2022-10-21T19:13:44.289Z,30.33
2022-10-21T19:16:11.857Z,31.98
2022-10-21T19:18:39.470Z,45.78
2022-10-21T19:21:07.602Z,40.55
2022-10-21T19:23:35.451Z,35.08
2022-10-21T19:26:04.024Z,27.80
2022-10-21T19:28:32.728Z,25.40
2022-10-21T19:31:02.064Z,40.65
2022-10-21T19:33:30.889Z,24.50
2022-10-21T19:36:00.554Z,29.98
2022-10-21T19:38:43.163Z,54.47
2022-10-21T19:41:13.393Z,20.98
2022-10-21T19:43:41.054Z,22.73
2022-10-21T19:46:11.717Z,21.58
2022-10-21T19:48:39.284Z,21.13
2022-10-21T19:51:08.740Z,23.30
2022-10-21T19:53:38.147Z,22.23
2022-10-21T19:56:07.329Z,22.20
2022-10-21T19:58:35.340Z,23.58
2022-10-21T20:01:03.110Z,23.92
2022-10-21T20:03:32.447Z,24.30
2022-10-21T20:05:59.966Z,23.00
2022-10-21T20:08:27.715Z,22.77
2022-10-21T20:11:02.617Z,22.85
2022-10-21T20:13:30.578Z,25.05
2022-10-21T20:15:58.904Z,26.73
2022-10-21T20:18:27.687Z,25.75
2022-10-21T20:20:56.871Z,26.30
2022-10-21T20:23:24.624Z,24.83
2022-10-21T20:25:55.206Z,25.38
2022-10-21T20:28:23.399Z,24.65
2022-10-21T20:30:57.869Z,33.75
2022-10-21T20:33:25.813Z,23.98
2022-10-21T20:35:53.637Z,23.80
2022-10-21T20:38:22.957Z,23.80
2022-10-21T20:40:54.612Z,23.48
2022-10-21T20:43:22.207Z,25.65
2022-10-21T20:45:49.739Z,26.58
2022-10-21T20:48:17.265Z,26.45
2022-10-21T20:50:44.857Z,26.02
2022-10-21T20:53:12.382Z,25.92
2022-10-21T20:55:42.756Z,26.65
2022-10-21T20:58:10.251Z,24.80
2022-10-21T21:00:38.027Z,26.65
2022-10-21T21:03:05.560Z,26.33
2022-10-21T21:05:38.121Z,25.77
2022-10-21T21:08:06.878Z,26.88
2022-10-21T21:10:34.460Z,25.85
2022-10-21T21:13:03.414Z,26.27
2022-10-21T21:15:30.987Z,26.08
2022-10-21T21:18:01.308Z,27.10
2022-10-21T21:20:28.984Z,27.45
2022-10-21T21:22:56.740Z,26.42
2022-10-21T21:25:24.233Z,25.42
2022-10-21T21:27:51.742Z,24.67
2022-10-21T21:30:20.732Z,23.92
2022-10-21T21:32:48.227Z,23.73
2022-10-21T21:35:15.964Z,24.13
2022-10-21T21:37:43.511Z,24.65
2022-10-21T21:40:12.286Z,23.20
2022-10-21T21:42:40.190Z,25.00
2022-10-21T21:45:08.916Z,23.73
2022-10-21T21:47:37.813Z,23.52
2022-10-21T21:50:05.862Z,26.20
2022-10-21T21:52:33.441Z,24.95
2022-10-21T21:55:00.935Z,25.58
2022-10-21T21:57:28.790Z,24.30
2022-10-21T21:59:56.403Z,25.40
2022-10-21T22:02:23.920Z,28.60
2022-10-21T22:04:52.852Z,29.73
2022-10-21T22:07:20.586Z,28.45
2022-10-21T22:09:49.175Z,28.08
2022-10-21T22:12:17.834Z,28.98
2022-10-21T22:14:46.321Z,26.63
2022-10-21T22:17:14.062Z,27.95
2022-10-21T22:19:41.588Z,27.55
2022-10-21T22:22:10.498Z,30.23
2022-10-21T22:24:38.450Z,28.75
2022-10-21T22:27:06.135Z,32.00
2022-10-21T22:29:33.697Z,29.73
2022-10-21T22:32:01.441Z,30.35
2022-10-21T22:34:28.992Z,29.73
2022-10-21T22:36:56.557Z,30.73
2022-10-21T22:39:25.622Z,31.88
2022-10-21T22:41:53.140Z,30.55
2022-10-21T22:44:22.032Z,32.33
2022-10-21T22:46:49.708Z,31.17
2022-10-21T22:49:17.810Z,33.63
2022-10-21T22:51:45.416Z,34.42
2022-10-21T22:54:29.680Z,34.17
2022-10-21T22:57:01.911Z,37.25
2022-10-21T22:59:29.409Z,37.35
2022-10-21T23:01:56.917Z,33.92
2022-10-21T23:04:24.420Z,50.72
2022-10-21T23:06:51.951Z,36.03
2022-10-21T23:09:19.542Z,55.83
2022-10-21T23:11:47.418Z,39.63
2022-10-21T23:14:16.353Z,32.70
2022-10-21T23:16:44.121Z,40.28
2022-10-21T23:21:44.173Z,39.00
2022-10-21T23:24:12.035Z,35.38
2022-10-21T23:26:39.621Z,38.40
2022-10-21T23:29:07.155Z,35.28
2022-10-21T23:31:36.043Z,37.28
2022-10-21T23:34:05.760Z,39.70
2022-10-21T23:36:34.453Z,35.92
2022-10-21T23:39:02.328Z,35.45
2022-10-21T23:41:30.147Z,34.05
2022-10-21T23:43:57.694Z,31.38
2022-10-21T23:46:25.242Z,37.22
2022-10-21T23:48:54.126Z,31.80
2022-10-21T23:51:22.070Z,36.03
2022-10-21T23:53:49.592Z,38.65
2022-10-21T23:56:17.160Z,35.70
2022-10-21T23:58:44.695Z,36.75
